Time;durP1;ratioP1;P1;durP2;ratioP2;P2;SDS_P1;SDS_P2;PMS_P1;PMS_P2;Temp;Humidity;BMP_temperature;BMP_pressure;BME280_temperature;BME280_humidity;BME280_pressure;Samples;Min_cycle;Max_cycle;Signal;HPM_P1;HPM_P2
2023/01/20 00:01:17;;;;;;;51.67;27.05;;;;;;;3.93;72.51;99872.00;5072228;28;20101;-63
2023/01/20 00:03:44;;;;;;;52.55;28.38;;;;;;;3.96;72.24;99866.53;5071949;28;20029;-65
2023/01/20 00:06:10;;;;;;;56.70;28.17;;;;;;;3.97;72.52;99884.97;5071516;28;20048;-65
2023/01/20 00:08:37;;;;;;;50.13;27.25;;;;;;;3.90;72.47;99858.91;5070814;28;20224;-65
2023/01/20 00:11:07;;;;;;;50.33;28.15;;;;;;;3.97;72.01;99858.47;5071640;28;20796;-62
2023/01/20 00:13:34;;;;;;;53.67;28.30;;;;;;;4.07;72.17;99865.97;5071681;28;20435;-63
2023/01/20 00:16:07;;;;;;;44.92;22.52;;;;;;;4.10;72.29;99871.09;5071944;28;20526;-64
2023/01/20 00:18:33;;;;;;;54.45;29.02;;;;;;;3.97;72.08;99884.13;5071785;28;20039;-64
2023/01/20 00:21:04;;;;;;;51.10;27.52;;;;;;;4.01;72.03;99865.38;5070992;28;20051;-62
2023/01/20 00:23:29;;;;;;;47.72;26.80;;;;;;;3.94;72.34;99876.34;5072530;28;20440;-64
2023/01/20 00:25:55;;;;;;;50.30;28.08;;;;;;;4.00;72.21;99876.91;5071824;28;20040;-64
2023/01/20 00:28:20;;;;;;;47.13;25.13;;;;;;;3.88;72.18;99843.09;5071938;28;20116;-65
2023/01/20 00:30:45;;;;;;;51.25;28.17;;;;;;;4.01;71.97;99859.19;5071467;28;20104;-63
2023/01/20 00:33:11;;;;;;;52.95;26.83;;;;;;;4.00;72.25;99861.00;5070502;28;20124;-64
2023/01/20 00:35:37;;;;;;;51.38;28.08;;;;;;;3.95;72.55;99856.88;5071906;28;20127;-64
2023/01/20 00:38:03;;;;;;;58.90;28.25;;;;;;;4.01;71.87;99865.38;5071735;28;20032;-64
2023/01/20 00:40:28;;;;;;;49.00;27.60;;;;;;;4.00;72.24;99863.66;5071589;28;20052;-63
2023/01/20 00:42:54;;;;;;;51.45;27.75;;;;;;;3.53;72.81;99788.38;5070700;28;20139;-63
2023/01/20 00:45:19;;;;;;;56.17;28.98;;;;;;;4.04;72.62;99882.03;5071082;28;20348;-64
2023/01/20 00:47:45;;;;;;;51.70;27.52;;;;;;;4.07;72.12;99856.22;5071023;28;20441;-64
2023/01/20 00:50:10;;;;;;;52.97;28.20;;;;;;;3.87;72.12;99831.66;5071434;28;20104;-66
2023/01/20 00:52:35;;;;;;;50.22;27.88;;;;;;;4.15;72.42;99861.97;5071946;28;20052;-64
2023/01/20 00:55:01;;;;;;;52.25;28.00;;;;;;;4.13;72.30;99870.94;5072194;28;20064;-65
2023/01/20 00:57:29;;;;;;;52.80;27.98;;;;;;;4.18;71.65;99865.41;5071199;28;20467;-66
2023/01/20 00:59:54;;;;;;;48.50;28.10;;;;;;;4.20;72.03;99864.34;5071321;28;20127;-65
2023/01/20 01:02:20;;;;;;;51.22;27.55;;;;;;;4.21;71.88;99855.47;5071645;28;20057;-67
2023/01/20 01:04:49;;;;;;;50.42;26.75;;;;;;;4.23;71.19;99834.19;5071492;28;20028;-66
2023/01/20 01:07:15;;;;;;;48.92;27.65;;;;;;;4.20;71.90;99874.13;5070290;28;20059;-64
2023/01/20 01:09:40;;;;;;;52.13;26.67;;;;;;;4.22;71.54;99861.63;5075038;28;20064;-67
2023/01/20 01:12:05;;;;;;;49.92;26.50;;;;;;;4.22;71.44;99864.28;5073982;28;20048;-65
2023/01/20 01:14:31;;;;;;;46.83;24.73;;;;;;;4.20;71.27;99874.13;5071496;28;20039;-66
2023/01/20 01:16:56;;;;;;;48.75;26.58;;;;;;;4.16;71.37;99853.09;5073974;28;20048;-65
2023/01/20 01:19:22;;;;;;;51.97;27.20;;;;;;;4.15;71.48;99851.38;5075083;28;20036;-65
2023/01/20 01:21:47;;;;;;;49.25;27.58;;;;;;;4.20;71.54;99853.75;5074924;28;20028;-64
2023/01/20 01:24:13;;;;;;;48.78;25.88;;;;;;;4.38;70.87;99851.94;5073493;28;20025;-67
2023/01/20 01:26:38;;;;;;;47.80;27.58;;;;;;;4.17;71.12;99853.94;5074792;28;20097;-65
2023/01/20 01:29:04;;;;;;;46.65;24.95;;;;;;;4.25;71.85;99867.66;5074474;28;20429;-66
2023/01/20 01:31:29;;;;;;;51.88;26.70;;;;;;;4.19;71.57;99860.00;5074943;28;20125;-65
2023/01/20 01:33:54;;;;;;;47.85;26.20;;;;;;;4.20;71.66;99867.00;5057967;28;20226;-64
2023/01/20 01:36:20;;;;;;;43.97;25.88;;;;;;;4.33;70.72;99864.56;5054982;28;20269;-65
2023/01/20 01:38:45;;;;;;;46.92;25.23;;;;;;;4.27;71.16;99863.13;5059381;28;20113;-64
2023/01/20 01:41:13;;;;;;;45.53;26.13;;;;;;;4.29;71.40;99895.69;5056965;28;20126;-65
2023/01/20 01:44:02;;;;;;;46.47;25.60;;;;;;;4.26;70.82;99853.44;5074146;28;20025;-64
2023/01/20 01:46:28;;;;;;;41.58;24.92;;;;;;;4.24;71.18;99852.69;5074360;28;20051;-65
2023/01/20 01:48:56;;;;;;;48.50;27.23;;;;;;;4.23;71.20;99860.69;5056746;28;20028;-65
2023/01/20 01:51:26;;;;;;;48.70;26.63;;;;;;;4.30;70.86;99859.41;5054676;28;20369;-65
2023/01/20 01:54:05;;;;;;;47.75;25.55;;;;;;;4.24;71.01;99862.41;5054410;28;20032;-64
2023/01/20 01:56:32;;;;;;;46.70;25.98;;;;;;;4.31;71.10;99871.72;5054134;28;20112;-67
2023/01/20 01:59:01;;;;;;;47.28;25.27;;;;;;;4.32;70.62;99876.09;5068711;28;20122;-66
2023/01/20 02:01:27;;;;;;;48.83;25.95;;;;;;;4.31;70.76;99866.44;5075114;28;20098;-68
2023/01/20 02:04:14;;;;;;;47.50;24.88;;;;;;;4.39;71.28;99864.25;5057583;28;20033;-67
2023/01/20 02:06:43;;;;;;;48.22;24.45;;;;;;;4.20;70.35;99813.16;5054064;28;20425;-68
2023/01/20 02:09:08;;;;;;;46.95;25.75;;;;;;;4.43;70.21;99872.88;5053837;28;20441;-68
2023/01/20 02:11:38;;;;;;;47.42;24.85;;;;;;;4.39;70.21;99866.03;5053759;28;20036;-68
2023/01/20 02:14:05;;;;;;;46.60;25.38;;;;;;;4.24;69.78;99833.25;5065792;28;20032;-67
2023/01/20 02:16:52;;;;;;;45.72;26.02;;;;;;;4.41;70.11;99869.44;5073787;28;20441;-65
2023/01/20 02:19:53;;;;;;;49.42;25.52;;;;;;;4.41;70.69;99864.16;5073308;28;20480;-67
2023/01/20 02:22:31;;;;;;;41.05;24.73;;;;;;;4.37;70.20;99849.34;5065572;28;20055;-67
2023/01/20 02:25:27;;;;;;;47.70;23.88;;;;;;;4.55;69.06;99863.38;5073376;28;20068;-66
2023/01/20 02:28:12;;;;;;;46.47;23.98;;;;;;;4.41;69.90;99861.50;5074065;28;20452;-67
2023/01/20 02:31:24;;;;;;;45.45;24.30;;;;;;;4.55;69.52;99861.59;5074009;28;20028;-67
2023/01/20 02:33:50;;;;;;;47.13;25.13;;;;;;;4.36;69.42;99868.84;5072872;28;20025;-66
2023/01/20 02:36:32;;;;;;;46.28;24.63;;;;;;;4.44;69.50;99874.56;5073171;28;20045;-66
2023/01/20 02:39:14;;;;;;;50.13;24.38;;;;;;;4.32;69.79;99889.34;5072897;28;20032;-64
2023/01/20 02:42:00;;;;;;;43.70;24.13;;;;;;;4.10;70.71;99847.25;5072736;28;20488;-63
2023/01/20 02:44:44;;;;;;;50.08;24.45;;;;;;;4.30;69.96;99875.31;5073477;28;20119;-65
2023/01/20 02:47:22;;;;;;;45.88;25.17;;;;;;;4.37;69.53;99879.38;5073129;28;20047;-62
2023/01/20 02:50:00;;;;;;;48.35;24.80;;;;;;;4.31;69.93;99866.44;5073360;28;20140;-65
2023/01/20 02:52:31;;;;;;;46.42;23.88;;;;;;;4.29;69.96;99873.63;5073351;28;20056;-65
2023/01/20 02:55:03;;;;;;;47.20;24.30;;;;;;;4.35;69.50;99889.22;5072922;28;20042;-65
2023/01/20 02:57:39;;;;;;;47.05;25.42;;;;;;;4.34;69.64;99868.94;5072229;28;20032;-62
2023/01/20 03:00:12;;;;;;;45.88;24.63;;;;;;;4.40;69.25;99881.84;5072797;28;20055;-60
2023/01/20 03:02:41;;;;;;;49.38;23.70;;;;;;;4.28;69.23;99879.84;5072847;28;20041;-63
2023/01/20 03:05:11;;;;;;;50.50;25.75;;;;;;;4.39;69.07;99876.63;5072872;28;20037;-62
2023/01/20 03:07:40;;;;;;;47.03;24.45;;;;;;;4.33;69.48;99891.06;5072954;28;20044;-62
2023/01/20 03:10:12;;;;;;;44.22;23.52;;;;;;;4.28;69.66;99877.22;5072959;28;20036;-62
2023/01/20 03:12:45;;;;;;;48.13;24.77;;;;;;;4.40;68.97;99903.06;5073017;28;20202;-63
2023/01/20 03:15:12;;;;;;;49.40;24.60;;;;;;;4.45;68.67;99922.22;5071854;28;20059;-61
2023/01/20 03:17:37;;;;;;;44.55;23.20;;;;;;;4.31;69.35;99895.59;5066142;28;20457;-63
2023/01/20 03:20:03;;;;;;;47.33;24.05;;;;;;;4.41;68.95;99896.81;5052841;28;20040;-62
2023/01/20 03:22:30;;;;;;;45.95;24.02;;;;;;;4.40;69.00;99891.59;5052730;28;20355;-63
2023/01/20 03:24:58;;;;;;;47.55;23.75;;;;;;;4.41;68.84;99910.09;5052561;28;20040;-63
2023/01/20 03:27:24;;;;;;;46.90;24.42;;;;;;;4.37;68.69;99891.75;5052271;28;20036;-63
2023/01/20 03:29:50;;;;;;;50.00;24.05;;;;;;;4.44;68.61;99909.91;5052328;28;20453;-63
2023/01/20 03:32:18;;;;;;;43.30;22.90;;;;;;;4.47;68.81;99935.41;5057828;28;20146;-62
2023/01/20 03:34:43;;;;;;;44.63;22.95;;;;;;;4.41;68.37;99914.50;5072327;28;20393;-63
2023/01/20 03:37:12;;;;;;;43.45;22.65;;;;;;;4.50;68.75;99924.63;5072410;28;20055;-63
2023/01/20 03:39:38;;;;;;;44.67;23.42;;;;;;;4.51;68.66;99914.88;5071568;28;20037;-63
2023/01/20 03:42:34;;;;;;;42.05;22.08;;;;;;;4.62;68.54;99917.81;5038692;28;20182;-62
2023/01/20 03:45:12;;;;;;;47.78;22.25;;;;;;;4.62;67.97;99938.16;5072207;28;20093;-64
2023/01/20 03:47:58;;;;;;;44.30;22.05;;;;;;;4.62;68.01;99927.56;5072407;28;20059;-62
2023/01/20 03:50:36;;;;;;;45.22;20.38;;;;;;;4.51;68.44;99926.34;5072178;28;20040;-64
2023/01/20 03:53:23;;;;;;;42.40;21.80;;;;;;;4.60;68.22;99935.63;5071499;28;20094;-64
2023/01/20 03:55:56;;;;;;;46.30;23.85;;;;;;;4.53;68.20;99940.38;5072337;28;20131;-63
2023/01/20 03:58:28;;;;;;;44.30;22.48;;;;;;;4.50;67.87;99914.03;5070937;28;20025;-63
2023/01/20 04:00:56;;;;;;;48.92;23.23;;;;;;;4.59;67.35;99934.75;5071897;28;20033;-62
2023/01/20 04:03:35;;;;;;;42.15;21.98;;;;;;;4.57;68.24;99930.44;5070773;28;20035;-61
2023/01/20 04:06:04;;;;;;;46.58;22.67;;;;;;;4.51;67.59;99931.66;5072093;28;20031;-61
2023/01/20 04:08:34;;;;;;;46.80;21.83;;;;;;;4.52;68.05;99930.72;5071397;28;20031;-63
2023/01/20 04:11:06;;;;;;;44.92;22.15;;;;;;;4.49;67.88;99922.06;5071595;28;20028;-62
2023/01/20 04:13:32;;;;;;;41.85;20.95;;;;;;;4.52;67.50;99932.50;5071652;28;20036;-62
2023/01/20 04:16:00;;;;;;;44.33;21.35;;;;;;;4.32;67.53;99894.66;5072042;28;20062;-61
2023/01/20 04:18:25;;;;;;;47.50;22.23;;;;;;;4.54;68.13;99938.56;5070609;28;20422;-61
2023/01/20 04:20:59;;;;;;;43.20;22.25;;;;;;;4.59;67.41;99940.03;5071570;28;20063;-58
2023/01/20 04:24:07;;;;;;;43.60;22.13;;;;;;;4.65;67.86;99936.22;5070480;28;20024;-62
2023/01/20 04:26:33;;;;;;;41.03;21.27;;;;;;;4.65;66.85;99928.25;5055380;28;20040;-57
2023/01/20 04:28:58;;;;;;;41.30;22.30;;;;;;;4.54;66.84;99927.97;5070129;28;20099;-63
2023/01/20 04:31:24;;;;;;;44.47;22.10;;;;;;;4.57;66.75;99930.44;5071533;28;20094;-62
2023/01/20 04:33:49;;;;;;;44.22;20.77;;;;;;;4.56;66.92;99949.94;5055355;28;20438;-63
2023/01/20 04:36:15;;;;;;;42.00;21.90;;;;;;;4.56;66.61;99940.22;5051985;28;20402;-63
2023/01/20 04:38:40;;;;;;;39.67;21.02;;;;;;;4.62;66.58;99965.56;5062421;28;20044;-63
2023/01/20 04:41:10;;;;;;;41.60;21.88;;;;;;;4.65;66.71;99961.84;5071295;28;20033;-55
2023/01/20 04:43:35;;;;;;;43.88;22.42;;;;;;;4.61;66.64;99945.28;5073985;28;20043;-62
2023/01/20 04:46:00;;;;;;;40.33;22.05;;;;;;;4.62;66.53;99952.28;5075594;28;20040;-56
2023/01/20 04:48:26;;;;;;;41.75;21.50;;;;;;;4.60;66.60;99948.88;5067280;28;20041;-58
2023/01/20 04:50:51;;;;;;;45.08;21.45;;;;;;;4.71;66.36;99967.69;5072314;28;20398;-59
2023/01/20 04:53:18;;;;;;;42.08;21.67;;;;;;;4.73;66.06;99957.03;5075167;28;20471;-60
2023/01/20 04:55:44;;;;;;;43.72;21.98;;;;;;;4.66;66.04;99955.63;5075254;28;20047;-53
2023/01/20 04:58:09;;;;;;;39.63;20.35;;;;;;;4.65;66.40;99970.69;5065022;28;20032;-56
2023/01/20 05:00:35;;;;;;;47.47;22.42;;;;;;;4.72;66.47;99968.56;5065292;28;20024;-53
2023/01/20 05:03:01;;;;;;;41.10;21.20;;;;;;;4.53;66.17;99944.81;5069184;28;20024;-57
2023/01/20 05:05:27;;;;;;;48.08;22.90;;;;;;;4.66;66.69;99964.44;5075113;28;20047;-57
2023/01/20 05:07:54;;;;;;;40.70;21.27;;;;;;;4.65;66.42;99952.13;5073902;28;20357;-60
2023/01/20 05:10:20;;;;;;;38.40;20.83;;;;;;;4.68;66.55;99981.13;5074682;28;20028;-60
2023/01/20 05:12:46;;;;;;;46.33;22.40;;;;;;;4.74;65.93;99980.78;5075425;28;20032;-56
2023/01/20 05:15:11;;;;;;;41.63;22.58;;;;;;;4.77;66.09;99978.91;5074603;28;20437;-60
2023/01/20 05:17:37;;;;;;;42.03;21.52;;;;;;;4.52;66.58;99935.16;5074304;28;20036;-55
2023/01/20 05:20:02;;;;;;;38.97;20.52;;;;;;;4.76;65.65;99982.50;5075058;28;20024;-59
2023/01/20 05:22:31;;;;;;;39.65;21.48;;;;;;;4.79;65.82;99980.56;5074694;28;20078;-56
2023/01/20 05:24:58;;;;;;;43.97;22.20;;;;;;;4.71;65.84;99988.06;5074527;28;20032;-57
2023/01/20 05:27:24;;;;;;;43.53;22.27;;;;;;;4.68;65.89;99986.44;5074747;28;20188;-57
2023/01/20 05:29:49;;;;;;;46.75;22.25;;;;;;;4.70;66.09;99973.06;5074129;28;20570;-58
2023/01/20 05:32:14;;;;;;;43.53;22.30;;;;;;;4.65;65.88;99960.09;5074692;28;20040;-56
2023/01/20 05:34:40;;;;;;;45.17;21.70;;;;;;;4.72;66.16;99985.31;5074906;28;20029;-59
2023/01/20 05:37:05;;;;;;;40.75;22.48;;;;;;;4.78;65.39;99977.97;5073960;28;20059;-60
2023/01/20 05:39:31;;;;;;;45.28;22.48;;;;;;;4.71;65.84;100001.34;5074483;28;20044;-56
2023/01/20 05:41:56;;;;;;;42.47;21.63;;;;;;;4.52;65.68;99949.28;5074382;28;20169;-61
2023/01/20 05:44:21;;;;;;;44.13;22.67;;;;;;;4.68;65.92;99994.38;5074863;28;20131;-53
2023/01/20 05:46:47;;;;;;;42.75;22.13;;;;;;;4.51;65.96;99936.09;5074026;28;20036;-57
2023/01/20 05:49:12;;;;;;;48.92;22.55;;;;;;;4.74;65.63;99982.59;5074055;28;20060;-57
2023/01/20 05:51:38;;;;;;;44.83;23.15;;;;;;;4.77;65.88;99973.59;5074989;28;20029;-57
2023/01/20 05:54:03;;;;;;;43.70;20.70;;;;;;;4.89;65.60;99979.09;5073610;28;20028;-55
2023/01/20 05:56:29;;;;;;;51.20;23.60;;;;;;;4.89;64.89;99988.88;5073883;28;20456;-58
2023/01/20 05:58:55;;;;;;;43.67;22.55;;;;;;;4.72;65.72;99987.13;5074065;28;20358;-55
2023/01/20 06:01:21;;;;;;;43.60;21.95;;;;;;;4.74;65.32;99996.72;5074585;28;20055;-57
2023/01/20 06:03:46;;;;;;;44.97;21.30;;;;;;;4.76;65.50;99993.13;5072321;28;20103;-55
2023/01/20 06:06:17;;;;;;;43.72;23.13;;;;;;;4.72;65.38;100008.34;5073933;28;20418;-56
2023/01/20 06:08:43;;;;;;;42.25;19.55;;;;;;;4.79;65.44;100009.72;5073541;28;20090;-59
2023/01/20 06:11:09;;;;;;;43.70;22.77;;;;;;;4.74;65.56;99994.06;5073476;28;20115;-54
2023/01/20 06:13:34;;;;;;;43.75;22.45;;;;;;;4.55;65.01;99980.06;5073657;28;20402;-55
2023/01/20 06:16:00;;;;;;;45.58;23.38;;;;;;;4.73;65.26;99992.34;5073617;28;20094;-56
2023/01/20 06:18:26;;;;;;;43.63;23.13;;;;;;;4.68;65.31;100007.66;5060854;28;20037;-59
2023/01/20 06:20:57;;;;;;;45.80;22.10;;;;;;;4.70;65.72;99999.59;5053802;28;20095;-59
2023/01/20 06:23:22;;;;;;;42.88;23.15;;;;;;;4.76;65.50;100009.03;5053581;28;20108;-63
2023/01/20 06:25:48;;;;;;;53.65;22.83;;;;;;;4.76;65.03;99991.34;5053825;28;20155;-51
2023/01/20 06:28:13;;;;;;;44.47;22.63;;;;;;;4.79;64.92;100000.91;5053753;28;20112;-66
2023/01/20 06:30:41;;;;;;;40.00;22.25;;;;;;;4.76;65.32;100009.91;5054098;28;20115;-58
2023/01/20 06:33:09;;;;;;;47.22;22.50;;;;;;;4.82;65.05;100029.91;5061720;28;20066;-55
2023/01/20 06:35:36;;;;;;;49.45;23.67;;;;;;;4.83;64.85;100027.19;5058684;28;20122;-58
2023/01/20 06:38:01;;;;;;;45.92;23.40;;;;;;;4.82;64.97;100035.22;5073015;28;20174;-56
2023/01/20 06:40:27;;;;;;;45.97;22.88;;;;;;;4.81;65.08;100028.19;5073266;28;20504;-57
2023/01/20 06:42:52;;;;;;;50.05;24.05;;;;;;;4.81;64.72;100030.84;5073330;28;20039;-59
2023/01/20 06:45:18;;;;;;;46.63;22.85;;;;;;;4.83;64.81;100027.19;5071850;28;20051;-61
2023/01/20 06:47:47;;;;;;;44.63;22.67;;;;;;;4.84;64.88;100036.03;5071139;28;20468;-56
2023/01/20 06:50:14;;;;;;;46.58;23.65;;;;;;;4.86;64.53;100042.09;5072951;28;20029;-58
2023/01/20 06:52:39;;;;;;;47.08;22.60;;;;;;;4.88;65.04;100045.53;5071047;28;20102;-58
2023/01/20 06:55:05;;;;;;;45.83;21.65;;;;;;;4.53;64.41;99981.94;5070601;28;20040;-58
2023/01/20 06:57:30;;;;;;;44.13;23.17;;;;;;;4.94;64.54;100068.19;5072132;28;20438;-59
2023/01/20 06:59:57;;;;;;;51.15;23.20;;;;;;;4.80;64.78;100053.00;5071511;28;20112;-56
2023/01/20 07:02:23;;;;;;;46.38;23.67;;;;;;;4.91;64.69;100068.38;5073103;28;20029;-61
2023/01/20 07:04:51;;;;;;;48.65;22.92;;;;;;;4.70;64.75;100032.28;5071801;28;20434;-56
2023/01/20 07:07:16;;;;;;;45.47;22.65;;;;;;;4.85;65.06;100078.38;5072128;28;20032;-59
2023/01/20 07:09:42;;;;;;;53.38;23.15;;;;;;;4.83;65.02;100082.91;5071590;28;20050;-59
2023/01/20 07:12:07;;;;;;;47.80;23.10;;;;;;;4.83;64.90;100082.06;5072425;28;20028;-53
2023/01/20 07:14:33;;;;;;;47.90;22.65;;;;;;;4.88;64.46;100087.97;5072782;28;20514;-53
2023/01/20 07:16:58;;;;;;;43.97;22.35;;;;;;;4.73;64.33;100057.81;5071363;28;20168;-62
2023/01/20 07:19:24;;;;;;;42.97;22.50;;;;;;;4.88;64.80;100078.22;5052341;28;20382;-60
2023/01/20 07:21:49;;;;;;;46.67;23.45;;;;;;;4.96;64.37;100076.97;5067173;28;20356;-58
2023/01/20 07:24:14;;;;;;;53.60;23.80;;;;;;;4.92;64.34;100078.91;5071850;28;20357;-60
2023/01/20 07:26:40;;;;;;;47.45;23.20;;;;;;;4.73;64.70;100053.34;5072289;28;20032;-69
2023/01/20 07:29:05;;;;;;;44.63;22.73;;;;;;;4.84;64.57;100091.75;5069399;28;20052;-67
2023/01/20 07:31:32;;;;;;;47.20;22.80;;;;;;;4.91;64.26;100086.94;5069679;28;20105;-58
2023/01/20 07:33:57;;;;;;;46.80;22.10;;;;;;;4.88;64.55;100095.94;5054571;28;20068;-57
2023/01/20 07:36:23;;;;;;;49.90;22.92;;;;;;;5.03;64.12;100092.44;5051511;28;20128;-67
2023/01/20 07:38:49;;;;;;;50.30;23.90;;;;;;;4.95;64.28;100092.00;5069334;28;20246;-56
2023/01/20 07:41:18;;;;;;;45.35;22.95;;;;;;;4.85;64.35;100074.88;5072031;28;20024;-56
2023/01/20 07:43:45;;;;;;;47.10;22.95;;;;;;;4.87;64.92;100103.03;5069813;28;20040;-53
2023/01/20 07:46:12;;;;;;;44.15;24.08;;;;;;;4.87;64.76;100095.06;5069649;28;20028;-56
2023/01/20 07:48:37;;;;;;;44.45;23.88;;;;;;;4.84;64.52;100086.44;5071839;28;20109;-57
2023/01/20 07:51:05;;;;;;;45.75;24.30;;;;;;;4.94;64.67;100092.94;5071961;28;20111;-54
2023/01/20 07:53:33;;;;;;;46.78;21.40;;;;;;;4.97;64.05;100081.34;5072375;28;20031;-65
2023/01/20 07:56:19;;;;;;;48.13;23.45;;;;;;;4.93;64.68;100080.63;5071882;28;20032;-58
2023/01/20 07:58:45;;;;;;;47.35;23.95;;;;;;;4.81;64.58;100070.66;5063415;28;20037;-56
2023/01/20 08:01:30;;;;;;;45.65;23.95;;;;;;;5.05;64.69;100083.56;5071844;28;20044;-59
2023/01/20 08:03:59;;;;;;;52.15;24.40;;;;;;;5.05;63.80;100118.91;5051108;28;20060;-56
2023/01/20 08:06:25;;;;;;;46.95;23.50;;;;;;;5.02;64.20;100082.78;5051877;28;20154;-57
2023/01/20 08:08:51;;;;;;;49.95;21.73;;;;;;;5.01;63.99;100083.72;5063031;28;20099;-61
2023/01/20 08:11:19;;;;;;;46.67;23.88;;;;;;;5.05;63.82;100080.91;5070785;28;20032;-55
2023/01/20 08:13:45;;;;;;;47.78;22.15;;;;;;;5.02;63.70;100077.47;5070730;28;20032;-58
2023/01/20 08:16:13;;;;;;;53.20;23.10;;;;;;;5.03;63.90;100081.84;5069571;28;20081;-56
2023/01/20 08:18:39;;;;;;;53.63;24.33;;;;;;;4.99;63.74;100084.75;5067621;28;20086;-58
2023/01/20 08:21:07;;;;;;;45.67;22.70;;;;;;;4.95;63.69;100057.53;5067255;28;20021;-55
2023/01/20 08:23:33;;;;;;;49.50;23.45;;;;;;;5.03;64.12;100091.63;5064968;28;20033;-64
2023/01/20 08:26:01;;;;;;;43.72;21.38;;;;;;;5.05;64.15;100083.56;5068007;28;20103;-58
2023/01/20 08:28:27;;;;;;;51.45;23.80;;;;;;;4.91;63.91;100066.59;5069019;28;20425;-59
2023/01/20 08:30:53;;;;;;;47.17;23.60;;;;;;;5.00;63.50;100087.31;5070608;28;20032;-60
2023/01/20 08:33:19;;;;;;;49.88;24.42;;;;;;;5.00;63.60;100091.78;5067960;28;20104;-57
2023/01/20 08:35:46;;;;;;;47.38;22.77;;;;;;;5.15;63.26;100106.88;5070828;28;20102;-59
2023/01/20 08:38:11;;;;;;;47.65;22.38;;;;;;;5.04;63.43;100095.97;5069577;28;20041;-58
2023/01/20 08:40:40;;;;;;;46.28;22.67;;;;;;;5.09;63.63;100116.97;5062269;28;20055;-60
2023/01/20 08:43:06;;;;;;;45.53;22.42;;;;;;;5.09;63.21;100093.09;5071724;28;20021;-56
2023/01/20 08:45:31;;;;;;;44.72;21.77;;;;;;;5.19;63.24;100101.41;5071573;28;20039;-57
2023/01/20 08:47:57;;;;;;;46.55;23.98;;;;;;;5.18;63.31;100092.59;5070917;28;20104;-60
2023/01/20 08:50:23;;;;;;;48.67;24.73;;;;;;;5.18;63.34;100095.25;5070432;28;20111;-62
2023/01/20 08:52:48;;;;;;;51.03;23.67;;;;;;;5.16;63.37;100097.13;5070422;28;20075;-56
2023/01/20 08:55:14;;;;;;;47.05;22.02;;;;;;;5.21;63.00;100105.69;5070280;28;20070;-56
2023/01/20 08:57:39;;;;;;;45.40;22.52;;;;;;;5.27;63.22;100100.03;5070990;28;20039;-60
2023/01/20 09:00:08;;;;;;;50.80;24.48;;;;;;;5.23;63.15;100108.28;5070276;28;20048;-61
2023/01/20 09:02:33;;;;;;;49.55;23.65;;;;;;;5.35;62.14;100112.06;5068053;28;20028;-61
2023/01/20 09:04:59;;;;;;;47.85;23.08;;;;;;;5.27;63.08;100123.09;5070888;28;20036;-63
2023/01/20 09:07:25;;;;;;;52.47;23.45;;;;;;;5.18;62.93;100105.84;5070423;28;20039;-62
2023/01/20 09:09:51;;;;;;;45.05;23.83;;;;;;;5.23;63.15;100110.94;5071732;28;20429;-66
2023/01/20 09:12:16;;;;;;;51.15;24.20;;;;;;;5.29;62.76;100122.03;5070783;28;20040;-63
2023/01/20 09:14:42;;;;;;;44.30;22.70;;;;;;;5.40;62.62;100131.25;5070365;28;20050;-63
2023/01/20 09:17:07;;;;;;;51.17;24.33;;;;;;;5.28;62.92;100115.03;5071363;28;20024;-64
2023/01/20 09:19:33;;;;;;;48.83;23.73;;;;;;;5.41;62.36;100125.00;5069878;28;20028;-63
2023/01/20 09:21:58;;;;;;;47.10;23.77;;;;;;;5.43;62.46;100128.41;5050946;28;20087;-58
2023/01/20 09:24:23;;;;;;;46.65;23.35;;;;;;;5.38;62.08;100117.19;5070692;28;20448;-65
2023/01/20 09:26:49;;;;;;;49.38;24.38;;;;;;;5.53;62.11;100139.41;5070442;28;20043;-60
2023/01/20 09:29:17;;;;;;;49.28;24.58;;;;;;;5.58;62.29;100145.31;5073215;28;20110;-73
2023/01/20 09:31:44;;;;;;;52.80;23.10;;;;;;;5.59;61.95;100139.94;5074412;28;20028;-62
2023/01/20 09:34:11;;;;;;;49.65;23.42;;;;;;;5.63;61.94;100140.59;5074251;28;20047;-63
2023/01/20 09:36:37;;;;;;;46.63;23.85;;;;;;;5.65;61.54;100138.72;5074415;28;20052;-63
2023/01/20 09:44:45;;;;;;;48.13;23.38;;;;;;;5.66;61.61;100136.94;5073870;28;20041;-63
2023/01/20 09:47:30;;;;;;;47.92;23.50;;;;;;;5.70;61.43;100147.31;5073859;28;20048;-62
2023/01/20 09:53:25;;;;;;;46.85;22.10;;;;;;;5.80;61.98;100168.91;5073272;28;20269;-63
2023/01/20 09:56:01;;;;;;;52.20;23.25;;;;;;;5.72;61.97;100163.16;5070513;28;20117;-63
2023/01/20 09:58:50;;;;;;;49.45;23.85;;;;;;;5.72;62.23;100148.09;5072410;28;20416;-66
2023/01/20 10:01:34;;;;;;;49.78;22.75;;;;;;;5.77;62.07;100158.44;5074265;28;20048;-64
2023/01/20 10:04:18;;;;;;;38.72;21.90;;;;;;;5.77;61.87;100147.81;5062421;28;20033;-64
2023/01/20 10:07:23;;;;;;;49.33;22.13;;;;;;;5.89;61.92;100157.75;5073217;28;20359;-59
2023/01/20 10:09:59;;;;;;;42.33;22.17;;;;;;;5.86;61.67;100165.03;5073206;28;20039;-62
2023/01/20 10:12:33;;;;;;;45.28;22.13;;;;;;;5.93;61.48;100163.78;5074118;28;20032;-68
2023/01/20 10:15:14;;;;;;;39.03;20.88;;;;;;;6.03;61.20;100166.81;5073749;28;20115;-64
2023/01/20 10:17:51;;;;;;;43.70;23.20;;;;;;;6.09;60.57;100171.78;5073255;28;20033;-63
2023/01/20 10:20:25;;;;;;;39.33;21.65;;;;;;;6.06;60.60;100149.81;5073226;28;20032;-61
2023/01/20 10:22:57;;;;;;;45.53;22.90;;;;;;;6.03;60.84;100149.06;5074013;28;20119;-63
2023/01/20 10:25:31;;;;;;;43.60;21.75;;;;;;;6.13;60.80;100183.06;5073608;28;20577;-63
2023/01/20 10:28:08;;;;;;;50.55;22.90;;;;;;;6.15;60.33;100157.28;5073822;28;20127;-63
2023/01/20 10:30:35;;;;;;;41.05;22.30;;;;;;;5.91;60.55;100119.63;5073469;28;20024;-68
2023/01/20 10:33:12;;;;;;;38.10;21.48;;;;;;;6.14;60.89;100153.75;5073418;28;20330;-64
2023/01/20 10:35:43;;;;;;;44.30;22.60;;;;;;;6.14;60.29;100153.75;5060182;28;20106;-61
2023/01/20 10:38:21;;;;;;;39.88;21.65;;;;;;;6.08;60.64;100139.94;5053290;28;20457;-64
2023/01/20 10:41:17;;;;;;;43.75;21.75;;;;;;;6.22;60.51;100147.13;5052308;28;20115;-64
2023/01/20 10:43:43;;;;;;;40.10;21.83;;;;;;;6.03;59.78;100118.97;5053358;28;20339;-62
2023/01/20 10:46:18;;;;;;;43.45;23.27;;;;;;;6.15;60.13;100149.31;5053331;28;20068;-63
2023/01/20 10:49:28;;;;;;;47.93;21.70;;;;;;;6.15;60.73;100155.47;5067569;28;20036;-62
2023/01/20 10:52:26;;;;;;;45.58;21.05;;;;;;;6.15;60.41;100155.47;5071919;28;20471;-55
2023/01/20 10:55:10;;;;;;;43.08;20.70;;;;;;;6.22;60.55;100165.75;5072968;28;20039;-58
2023/01/20 10:57:37;;;;;;;42.22;21.63;;;;;;;6.16;60.16;100162.50;5073217;28;20406;-53
2023/01/20 11:00:07;;;;;;;49.85;21.65;;;;;;;6.24;59.87;100154.09;5072926;28;20257;-54
2023/01/20 11:02:36;;;;;;;41.70;21.10;;;;;;;6.24;60.07;100163.84;5071227;28;20102;-58
2023/01/20 11:05:08;;;;;;;40.30;21.98;;;;;;;6.33;59.53;100160.69;5072941;28;20452;-61
2023/01/20 11:07:33;;;;;;;40.22;20.58;;;;;;;6.35;59.54;100165.91;5070604;28;20055;-58
2023/01/20 11:10:13;;;;;;;41.50;20.70;;;;;;;6.43;60.04;100156.53;5073084;28;20028;-56
2023/01/20 11:12:40;;;;;;;42.95;20.77;;;;;;;6.38;59.62;100160.41;5072223;28;20078;-55
2023/01/20 11:15:17;;;;;;;40.03;21.50;;;;;;;6.39;59.60;100165.66;5072910;28;20033;-58
2023/01/20 11:17:43;;;;;;;37.10;19.92;;;;;;;6.30;59.38;100168.84;5072215;28;20044;-54
2023/01/20 11:20:18;;;;;;;40.90;19.27;;;;;;;6.39;59.45;100167.44;5072832;28;20032;-55
2023/01/20 11:22:49;;;;;;;35.35;19.58;;;;;;;6.32;59.62;100161.63;5072366;28;20490;-54
2023/01/20 11:25:25;;;;;;;38.05;20.58;;;;;;;6.22;60.03;100163.09;5072483;28;20784;-54
2023/01/20 11:27:52;;;;;;;39.17;20.45;;;;;;;6.17;59.56;100169.53;5072580;28;20040;-55
2023/01/20 11:30:29;;;;;;;40.55;20.35;;;;;;;6.15;59.84;100155.47;5069240;28;20029;-56
2023/01/20 11:33:07;;;;;;;39.35;20.67;;;;;;;6.09;60.45;100154.97;5070774;28;20103;-66
2023/01/20 11:35:33;;;;;;;35.88;18.48;;;;;;;6.05;59.91;100164.06;5072409;28;20102;-57
2023/01/20 11:38:20;;;;;;;39.85;19.63;;;;;;;6.10;60.25;100172.63;5072524;28;20040;-53
2023/01/20 11:40:52;;;;;;;37.05;19.48;;;;;;;5.92;60.03;100139.94;5072134;28;20468;-55
2023/01/20 11:43:34;;;;;;;38.05;20.40;;;;;;;6.14;60.47;100175.03;5072287;28;20079;-58